logo
Search for airport 
image banner adimage banner adimage banner ad
image banner ad

CA43 - Barton Memorial Hospital

Located in South Lake Tahoe, United States

ICAO - CA43, IATA -

Data provided by Airmate  

General information

Coordinates: N38°54'41" W119°59'49"
Elevation is 6298 feet MSL.
Magnetic variation is 16° East
View others Airports in California

Operational data

Special qualification required
Current time UTC:
Current local time:
Weather at : KTVL - Lake Tahoe ( 2 km )
METAR: KTVL 261553Z AUTO 16003KT 10SM CLR 11/06 A3031 RMK AO2 SLP224 T01110061
TAF: KTVL 261120Z 2612/2712 VRB04KT P6SM SCT100 FM261900 24007G14KT P6SM SCT080 FM270300 VRB03KT P6SM SCT080
View NOTAMs / SUP AIP / TFR affecting this airport [VIEW]
Communications frequencies: [VIEW]

Runways:

Airport contact information

Address: South Lake Tahoe United States

Satellite view of CA43